createdAt,value
2018-04-22T04:00:42.289Z,98539
2018-04-22T04:03:08.475Z,98529
2018-04-22T04:05:34.637Z,98541
2018-04-22T04:08:00.820Z,98527
2018-04-22T04:10:26.994Z,98538
2018-04-22T04:12:53.193Z,98531
2018-04-22T04:15:19.390Z,98536
2018-04-22T04:31:26.908Z,98530
2018-04-22T04:33:53.138Z,98531
2018-04-22T04:36:19.289Z,98544
2018-04-22T04:38:45.450Z,98534
2018-04-22T04:41:12.394Z,98536
2018-04-22T04:43:39.309Z,98534
2018-04-22T04:46:05.502Z,98536
2018-04-22T04:48:31.681Z,98536
2018-04-22T04:50:57.851Z,98545
2018-04-22T04:53:24.013Z,98537
2018-04-22T04:55:50.189Z,98534
2018-04-22T04:58:16.367Z,98537
2018-04-22T05:00:43.295Z,98524
2018-04-22T05:03:09.474Z,98528
2018-04-22T05:05:35.653Z,98530
2018-04-22T05:08:01.837Z,98535
2018-04-22T05:10:28.786Z,98531
2018-04-22T05:12:55.693Z,98539
2018-04-22T05:15:21.902Z,98527
2018-04-22T05:17:48.066Z,98529
2018-04-22T05:20:14.236Z,98538
2018-04-22T05:22:40.413Z,98541
2018-04-22T05:25:06.599Z,98529
2018-04-22T05:27:33.386Z,98525
2018-04-22T05:29:59.562Z,98525
2018-04-22T05:32:25.746Z,98524
2018-04-22T05:34:51.914Z,98525
2018-04-22T05:37:18.109Z,98521
2018-04-22T05:39:44.285Z,98520
2018-04-22T05:42:10.451Z,98529
2018-04-22T05:44:36.626Z,98529
2018-04-22T05:47:02.800Z,98521
2018-04-22T05:49:28.962Z,98517
2018-04-22T05:51:55.874Z,98516
2018-04-22T05:54:22.041Z,98513
2018-04-22T05:56:48.942Z,98507
2018-04-22T05:59:15.102Z,98508
2018-04-22T06:01:42.022Z,98506
2018-04-22T06:04:08.188Z,98510
2018-04-22T06:06:35.089Z,98502
2018-04-22T06:09:01.259Z,98500
2018-04-22T06:11:28.168Z,98510
2018-04-22T06:13:54.342Z,98504
2018-04-22T06:16:21.272Z,98504
2018-04-22T06:18:48.178Z,98493
2018-04-22T06:21:14.339Z,98492
2018-04-22T06:23:41.286Z,98499
2018-04-22T06:26:08.199Z,98495
2018-04-22T06:28:34.398Z,98493
2018-04-22T06:31:00.585Z,98488
2018-04-22T06:33:27.498Z,98486
2018-04-22T06:35:53.661Z,98473
2018-04-22T06:38:20.573Z,98472
2018-04-22T06:40:46.750Z,98475
2018-04-22T06:43:12.929Z,98477
2018-04-22T06:45:39.106Z,98474
2018-04-22T06:48:05.273Z,98468
2018-04-22T06:50:31.442Z,98468
2018-04-22T06:52:58.349Z,98469
2018-04-22T06:55:24.526Z,98476
2018-04-22T06:57:51.437Z,98459
2018-04-22T07:00:17.605Z,98464
2018-04-22T07:02:43.783Z,98467
2018-04-22T07:05:09.997Z,98464
2018-04-22T07:07:36.177Z,98467
2018-04-22T07:10:03.097Z,98465
2018-04-22T07:12:29.285Z,98466
2018-04-22T07:14:55.544Z,98459
2018-04-22T07:17:21.722Z,98454
2018-04-22T07:19:47.965Z,98457
2018-04-22T07:22:14.139Z,98457
2018-04-22T07:24:40.323Z,98445
2018-04-22T07:27:06.526Z,98449
2018-04-22T07:29:33.458Z,98445
2018-04-22T07:32:00.494Z,98440
2018-04-22T07:34:27.260Z,98446
2018-04-22T07:36:53.479Z,98453
2018-04-22T07:39:20.494Z,98456
2018-04-22T07:41:46.713Z,98447
2018-04-22T07:44:12.970Z,98447
2018-04-22T07:46:39.961Z,98445
2018-04-22T07:49:06.161Z,98437
2018-04-22T07:51:33.118Z,98437
2018-04-22T07:53:59.368Z,98441
2018-04-22T07:56:25.560Z,98432
2018-04-22T07:58:52.538Z,98431
2018-04-22T08:01:18.738Z,98425
2018-04-22T08:03:45.679Z,98426
2018-04-22T08:06:12.658Z,98430
2018-04-22T08:08:38.892Z,98427
2018-04-22T08:11:05.094Z,98432
2018-04-22T08:13:32.055Z,98433
2018-04-22T08:15:58.274Z,98430
2018-04-22T08:18:24.466Z,98430
2018-04-22T08:20:51.095Z,98429
2018-04-22T08:23:17.239Z,98422
2018-04-22T08:25:43.417Z,98415
2018-04-22T08:28:09.595Z,98424
2018-04-22T08:30:35.773Z,98415
2018-04-22T08:33:01.955Z,98408
2018-04-22T08:35:28.138Z,98407
2018-04-22T08:37:54.342Z,98402
2018-04-22T08:40:20.538Z,98402
2018-04-22T08:42:46.751Z,98410
2018-04-22T08:45:12.947Z,98408
2018-04-22T08:47:39.157Z,98399
2018-04-22T08:50:05.345Z,98402
2018-04-22T08:52:31.526Z,98403
2018-04-22T08:54:57.686Z,98399
2018-04-22T08:57:23.886Z,98393
2018-04-22T08:59:50.078Z,98396
2018-04-22T09:02:17.007Z,98409
2018-04-22T09:04:43.181Z,98400
2018-04-22T09:07:10.098Z,98407
2018-04-22T09:09:37.018Z,98400
2018-04-22T09:12:03.262Z,98407
2018-04-22T09:14:30.222Z,98406
2018-04-22T09:16:57.134Z,98402
2018-04-22T09:19:23.353Z,98392
2018-04-22T09:21:49.533Z,98388
2018-04-22T09:24:15.718Z,98386
2018-04-22T09:26:41.890Z,98380
2018-04-22T09:29:08.118Z,98383
2018-04-22T09:31:34.312Z,98382
2018-04-22T09:34:00.523Z,98370
2018-04-22T09:36:26.734Z,98382
2018-04-22T09:38:53.010Z,98373
2018-04-22T09:43:56.168Z,98364
2018-04-22T09:46:22.361Z,98365
2018-04-22T09:48:49.275Z,98370
2018-04-22T09:51:15.463Z,98354
2018-04-22T09:53:41.653Z,98354
2018-04-22T09:56:08.614Z,98360
2018-04-22T09:58:34.967Z,98356
2018-04-22T10:01:01.274Z,98343
2018-04-22T10:03:30.305Z,98335
2018-04-22T10:06:17.321Z,98335
2018-04-22T10:08:43.499Z,98338
2018-04-22T10:13:43.323Z,98327
2018-04-22T10:16:10.273Z,98323
2018-04-22T10:18:37.190Z,98309
2018-04-22T10:21:05.374Z,98324
2018-04-22T10:23:45.584Z,98312
2018-04-22T10:29:05.121Z,98325
2018-04-22T10:31:31.313Z,98314
2018-04-22T10:33:57.538Z,98310
2018-04-22T10:36:23.731Z,98316
2018-04-22T10:38:52.062Z,98309
2018-04-22T10:41:18.256Z,98298
